sensor_id;sensor_type;location;lat;lon;timestamp;temperature;humidity
47825;DHT22;33589;48.242;14.676;2023-12-20T00:01:05;22.80;48.70
47825;DHT22;33589;48.242;14.676;2023-12-20T00:03:31;22.80;48.60
47825;DHT22;33589;48.242;14.676;2023-12-20T00:05:57;22.80;48.60
47825;DHT22;33589;48.242;14.676;2023-12-20T00:08:22;22.80;48.60
47825;DHT22;33589;48.242;14.676;2023-12-20T00:10:48;22.80;48.60
47825;DHT22;33589;48.242;14.676;2023-12-20T00:13:14;22.80;48.60
47825;DHT22;33589;48.242;14.676;2023-12-20T00:15:40;22.80;48.50
47825;DHT22;33589;48.242;14.676;2023-12-20T00:18:05;22.70;48.40
47825;DHT22;33589;48.242;14.676;2023-12-20T00:20:31;22.70;48.50
47825;DHT22;33589;48.242;14.676;2023-12-20T00:22:57;22.70;48.50
47825;DHT22;33589;48.242;14.676;2023-12-20T00:25:24;22.70;48.40
47825;DHT22;33589;48.242;14.676;2023-12-20T00:27:49;22.70;48.20
47825;DHT22;33589;48.242;14.676;2023-12-20T00:30:16;22.80;48.30
47825;DHT22;33589;48.242;14.676;2023-12-20T00:32:42;22.80;48.30
47825;DHT22;33589;48.242;14.676;2023-12-20T00:35:14;22.80;48.20
47825;DHT22;33589;48.242;14.676;2023-12-20T00:37:40;22.70;48.10
47825;DHT22;33589;48.242;14.676;2023-12-20T00:40:06;22.70;48.20
47825;DHT22;33589;48.242;14.676;2023-12-20T00:42:33;22.70;48.90
47825;DHT22;33589;48.242;14.676;2023-12-20T00:44:59;22.70;48.40
47825;DHT22;33589;48.242;14.676;2023-12-20T00:47:25;22.70;48.40
47825;DHT22;33589;48.242;14.676;2023-12-20T00:49:51;22.70;48.40
47825;DHT22;33589;48.242;14.676;2023-12-20T00:52:17;22.60;48.40
47825;DHT22;33589;48.242;14.676;2023-12-20T00:54:43;22.70;48.40
47825;DHT22;33589;48.242;14.676;2023-12-20T00:57:09;22.70;48.40
47825;DHT22;33589;48.242;14.676;2023-12-20T00:59:35;22.70;48.40
47825;DHT22;33589;48.242;14.676;2023-12-20T01:02:01;22.70;48.40
47825;DHT22;33589;48.242;14.676;2023-12-20T01:04:27;22.60;48.50
47825;DHT22;33589;48.242;14.676;2023-12-20T01:06:52;22.60;48.60
47825;DHT22;33589;48.242;14.676;2023-12-20T01:09:19;22.60;48.40
47825;DHT22;33589;48.242;14.676;2023-12-20T01:11:45;22.60;48.50
47825;DHT22;33589;48.242;14.676;2023-12-20T01:14:12;22.60;48.50
47825;DHT22;33589;48.242;14.676;2023-12-20T01:16:38;22.60;48.40
47825;DHT22;33589;48.242;14.676;2023-12-20T01:19:03;22.60;48.40
47825;DHT22;33589;48.242;14.676;2023-12-20T01:21:29;22.60;48.50
47825;DHT22;33589;48.242;14.676;2023-12-20T01:23:55;22.50;48.40
47825;DHT22;33589;48.242;14.676;2023-12-20T01:26:21;22.50;48.40
47825;DHT22;33589;48.242;14.676;2023-12-20T01:28:47;22.50;48.40
47825;DHT22;33589;48.242;14.676;2023-12-20T01:31:13;22.50;48.40
47825;DHT22;33589;48.242;14.676;2023-12-20T01:33:38;22.50;48.40
47825;DHT22;33589;48.242;14.676;2023-12-20T01:36:04;22.50;48.40
47825;DHT22;33589;48.242;14.676;2023-12-20T01:38:30;22.50;48.40
47825;DHT22;33589;48.242;14.676;2023-12-20T01:40:56;22.50;48.50
47825;DHT22;33589;48.242;14.676;2023-12-20T01:43:21;22.50;48.40
47825;DHT22;33589;48.242;14.676;2023-12-20T01:45:47;22.50;48.40
47825;DHT22;33589;48.242;14.676;2023-12-20T01:48:15;22.50;48.40
47825;DHT22;33589;48.242;14.676;2023-12-20T01:50:42;22.50;48.40
47825;DHT22;33589;48.242;14.676;2023-12-20T01:53:11;22.50;48.50
47825;DHT22;33589;48.242;14.676;2023-12-20T01:55:39;22.50;49.10
47825;DHT22;33589;48.242;14.676;2023-12-20T01:58:06;22.50;48.50
47825;DHT22;33589;48.242;14.676;2023-12-20T02:00:32;22.50;48.50
47825;DHT22;33589;48.242;14.676;2023-12-20T02:03:01;22.50;48.40
47825;DHT22;33589;48.242;14.676;2023-12-20T02:05:30;22.50;48.40
47825;DHT22;33589;48.242;14.676;2023-12-20T02:07:55;22.50;48.50
47825;DHT22;33589;48.242;14.676;2023-12-20T02:10:21;22.40;48.40
47825;DHT22;33589;48.242;14.676;2023-12-20T02:12:47;22.40;48.50
47825;DHT22;33589;48.242;14.676;2023-12-20T02:15:13;22.40;48.40
47825;DHT22;33589;48.242;14.676;2023-12-20T02:17:39;22.40;48.40
47825;DHT22;33589;48.242;14.676;2023-12-20T02:20:06;22.40;48.50
47825;DHT22;33589;48.242;14.676;2023-12-20T02:22:32;22.40;48.40
47825;DHT22;33589;48.242;14.676;2023-12-20T02:24:57;22.40;48.40
47825;DHT22;33589;48.242;14.676;2023-12-20T02:27:23;22.40;48.40
47825;DHT22;33589;48.242;14.676;2023-12-20T02:29:50;22.40;48.40
47825;DHT22;33589;48.242;14.676;2023-12-20T02:32:19;22.40;48.50
47825;DHT22;33589;48.242;14.676;2023-12-20T02:34:47;22.40;48.40
47825;DHT22;33589;48.242;14.676;2023-12-20T02:37:13;22.40;49.00
47825;DHT22;33589;48.242;14.676;2023-12-20T02:39:39;22.40;48.30
47825;DHT22;33589;48.242;14.676;2023-12-20T02:42:04;22.40;48.30
47825;DHT22;33589;48.242;14.676;2023-12-20T02:44:30;22.40;48.30
47825;DHT22;33589;48.242;14.676;2023-12-20T02:46:56;22.40;48.30
47825;DHT22;33589;48.242;14.676;2023-12-20T02:49:21;22.40;48.40
47825;DHT22;33589;48.242;14.676;2023-12-20T02:51:47;22.40;48.30
47825;DHT22;33589;48.242;14.676;2023-12-20T02:54:13;22.40;48.30
47825;DHT22;33589;48.242;14.676;2023-12-20T02:56:40;22.40;48.30
47825;DHT22;33589;48.242;14.676;2023-12-20T02:59:05;22.40;48.30
47825;DHT22;33589;48.242;14.676;2023-12-20T03:01:31;22.40;48.20
47825;DHT22;33589;48.242;14.676;2023-12-20T03:03:57;22.40;48.20
47825;DHT22;33589;48.242;14.676;2023-12-20T03:06:23;22.40;48.20
47825;DHT22;33589;48.242;14.676;2023-12-20T03:08:50;22.40;48.20
47825;DHT22;33589;48.242;14.676;2023-12-20T03:11:15;22.40;48.20
47825;DHT22;33589;48.242;14.676;2023-12-20T03:13:41;22.40;48.20
47825;DHT22;33589;48.242;14.676;2023-12-20T03:16:10;22.40;48.20
47825;DHT22;33589;48.242;14.676;2023-12-20T03:18:37;22.40;48.20
47825;DHT22;33589;48.242;14.676;2023-12-20T03:21:03;22.40;48.10
47825;DHT22;33589;48.242;14.676;2023-12-20T03:23:30;22.40;48.10
47825;DHT22;33589;48.242;14.676;2023-12-20T03:25:58;22.40;48.20
47825;DHT22;33589;48.242;14.676;2023-12-20T03:28:24;22.40;48.10
47825;DHT22;33589;48.242;14.676;2023-12-20T03:30:50;22.40;48.20
47825;DHT22;33589;48.242;14.676;2023-12-20T03:33:16;22.40;48.10
47825;DHT22;33589;48.242;14.676;2023-12-20T03:35:42;22.40;48.10
47825;DHT22;33589;48.242;14.676;2023-12-20T03:38:08;22.40;48.10
47825;DHT22;33589;48.242;14.676;2023-12-20T03:40:33;22.40;48.10
47825;DHT22;33589;48.242;14.676;2023-12-20T03:42:59;22.40;48.10
47825;DHT22;33589;48.242;14.676;2023-12-20T03:45:25;22.40;48.10
47825;DHT22;33589;48.242;14.676;2023-12-20T03:47:51;22.40;48.10
47825;DHT22;33589;48.242;14.676;2023-12-20T03:50:25;22.40;48.10
47825;DHT22;33589;48.242;14.676;2023-12-20T03:52:51;22.40;48.10
47825;DHT22;33589;48.242;14.676;2023-12-20T03:55:17;22.30;48.10
47825;DHT22;33589;48.242;14.676;2023-12-20T03:57:43;22.30;48.10
47825;DHT22;33589;48.242;14.676;2023-12-20T04:00:10;22.30;48.10
47825;DHT22;33589;48.242;14.676;2023-12-20T04:02:38;22.30;48.10
47825;DHT22;33589;48.242;14.676;2023-12-20T04:05:04;22.30;48.10
47825;DHT22;33589;48.242;14.676;2023-12-20T04:07:30;22.30;48.20
47825;DHT22;33589;48.242;14.676;2023-12-20T04:09:56;22.30;48.20
47825;DHT22;33589;48.242;14.676;2023-12-20T04:12:22;22.30;48.20
47825;DHT22;33589;48.242;14.676;2023-12-20T04:14:47;22.30;48.20
47825;DHT22;33589;48.242;14.676;2023-12-20T04:17:14;22.30;48.10
47825;DHT22;33589;48.242;14.676;2023-12-20T04:19:42;22.30;48.20
47825;DHT22;33589;48.242;14.676;2023-12-20T04:22:07;22.30;48.00
47825;DHT22;33589;48.242;14.676;2023-12-20T04:24:33;22.30;48.00
47825;DHT22;33589;48.242;14.676;2023-12-20T04:26:59;22.40;47.90
47825;DHT22;33589;48.242;14.676;2023-12-20T04:29:25;22.40;47.90
47825;DHT22;33589;48.242;14.676;2023-12-20T04:31:51;22.40;47.90
47825;DHT22;33589;48.242;14.676;2023-12-20T04:34:17;22.50;47.80
47825;DHT22;33589;48.242;14.676;2023-12-20T04:36:43;22.50;47.80
47825;DHT22;33589;48.242;14.676;2023-12-20T04:39:10;22.50;47.60
47825;DHT22;33589;48.242;14.676;2023-12-20T04:41:35;22.50;47.50
47825;DHT22;33589;48.242;14.676;2023-12-20T04:44:01;22.60;47.60
47825;DHT22;33589;48.242;14.676;2023-12-20T04:46:27;22.60;47.50
47825;DHT22;33589;48.242;14.676;2023-12-20T04:48:53;22.60;47.40
47825;DHT22;33589;48.242;14.676;2023-12-20T04:51:19;22.60;47.50
47825;DHT22;33589;48.242;14.676;2023-12-20T04:53:46;22.60;47.40
47825;DHT22;33589;48.242;14.676;2023-12-20T04:56:11;22.60;47.40
47825;DHT22;33589;48.242;14.676;2023-12-20T04:58:37;22.60;47.40
47825;DHT22;33589;48.242;14.676;2023-12-20T05:01:05;22.60;47.40
47825;DHT22;33589;48.242;14.676;2023-12-20T05:03:31;22.60;47.30
47825;DHT22;33589;48.242;14.676;2023-12-20T05:05:57;22.60;47.30
47825;DHT22;33589;48.242;14.676;2023-12-20T05:08:23;22.60;47.30
47825;DHT22;33589;48.242;14.676;2023-12-20T05:10:48;22.60;47.30
47825;DHT22;33589;48.242;14.676;2023-12-20T05:13:14;22.60;47.30
47825;DHT22;33589;48.242;14.676;2023-12-20T05:15:40;22.60;47.40
47825;DHT22;33589;48.242;14.676;2023-12-20T05:18:06;22.60;47.30
47825;DHT22;33589;48.242;14.676;2023-12-20T05:20:31;22.60;47.50
47825;DHT22;33589;48.242;14.676;2023-12-20T05:22:57;22.60;47.50
47825;DHT22;33589;48.242;14.676;2023-12-20T05:25:23;22.60;47.40
47825;DHT22;33589;48.242;14.676;2023-12-20T05:27:50;22.60;47.40
47825;DHT22;33589;48.242;14.676;2023-12-20T05:30:15;22.60;47.40
47825;DHT22;33589;48.242;14.676;2023-12-20T05:32:41;22.60;47.30
47825;DHT22;33589;48.242;14.676;2023-12-20T05:35:07;22.60;47.30
47825;DHT22;33589;48.242;14.676;2023-12-20T05:37:33;22.60;47.30
47825;DHT22;33589;48.242;14.676;2023-12-20T05:39:58;22.60;47.30
47825;DHT22;33589;48.242;14.676;2023-12-20T05:42:24;22.70;47.40
47825;DHT22;33589;48.242;14.676;2023-12-20T05:44:50;22.70;47.40
47825;DHT22;33589;48.242;14.676;2023-12-20T05:47:16;22.70;47.40
47825;DHT22;33589;48.242;14.676;2023-12-20T05:49:43;22.70;47.40
47825;DHT22;33589;48.242;14.676;2023-12-20T05:52:09;22.70;47.40
47825;DHT22;33589;48.242;14.676;2023-12-20T05:54:35;22.70;47.50
47825;DHT22;33589;48.242;14.676;2023-12-20T05:57:01;22.70;47.50
47825;DHT22;33589;48.242;14.676;2023-12-20T05:59:27;22.70;47.50
47825;DHT22;33589;48.242;14.676;2023-12-20T06:01:52;22.70;47.50
47825;DHT22;33589;48.242;14.676;2023-12-20T06:04:18;22.70;47.50
47825;DHT22;33589;48.242;14.676;2023-12-20T06:06:44;22.70;47.60
47825;DHT22;33589;48.242;14.676;2023-12-20T06:09:10;22.60;47.60
47825;DHT22;33589;48.242;14.676;2023-12-20T06:11:37;22.60;47.60
47825;DHT22;33589;48.242;14.676;2023-12-20T06:14:03;22.60;47.60
47825;DHT22;33589;48.242;14.676;2023-12-20T06:16:29;22.60;47.50
47825;DHT22;33589;48.242;14.676;2023-12-20T06:18:54;22.60;47.30
47825;DHT22;33589;48.242;14.676;2023-12-20T06:21:20;22.60;47.50
47825;DHT22;33589;48.242;14.676;2023-12-20T06:23:46;22.60;47.40
47825;DHT22;33589;48.242;14.676;2023-12-20T06:26:12;22.60;47.40
47825;DHT22;33589;48.242;14.676;2023-12-20T06:28:37;22.60;47.40
47825;DHT22;33589;48.242;14.676;2023-12-20T06:31:03;22.60;47.30
47825;DHT22;33589;48.242;14.676;2023-12-20T06:33:29;22.60;47.40
47825;DHT22;33589;48.242;14.676;2023-12-20T06:35:57;22.60;47.40
47825;DHT22;33589;48.242;14.676;2023-12-20T06:38:22;22.60;47.40
47825;DHT22;33589;48.242;14.676;2023-12-20T06:40:48;22.60;47.30
47825;DHT22;33589;48.242;14.676;2023-12-20T06:43:14;22.60;47.40
47825;DHT22;33589;48.242;14.676;2023-12-20T06:45:40;22.60;47.40
47825;DHT22;33589;48.242;14.676;2023-12-20T06:48:06;22.60;47.20
47825;DHT22;33589;48.242;14.676;2023-12-20T06:50:32;22.70;47.40
47825;DHT22;33589;48.242;14.676;2023-12-20T06:52:58;22.70;47.40
47825;DHT22;33589;48.242;14.676;2023-12-20T06:55:24;22.80;55.80
47825;DHT22;33589;48.242;14.676;2023-12-20T06:57:49;22.70;48.80
47825;DHT22;33589;48.242;14.676;2023-12-20T07:00:16;23.00;48.00
47825;DHT22;33589;48.242;14.676;2023-12-20T07:02:42;23.20;47.70
47825;DHT22;33589;48.242;14.676;2023-12-20T07:05:09;23.20;47.40
47825;DHT22;33589;48.242;14.676;2023-12-20T07:07:34;23.30;47.50
47825;DHT22;33589;48.242;14.676;2023-12-20T07:10:00;23.30;47.50
47825;DHT22;33589;48.242;14.676;2023-12-20T07:12:26;23.40;47.50
47825;DHT22;33589;48.242;14.676;2023-12-20T07:14:52;23.40;47.30
47825;DHT22;33589;48.242;14.676;2023-12-20T07:17:17;23.50;47.00
47825;DHT22;33589;48.242;14.676;2023-12-20T07:19:43;23.50;47.30
47825;DHT22;33589;48.242;14.676;2023-12-20T07:22:09;23.60;47.40
47825;DHT22;33589;48.242;14.676;2023-12-20T07:24:34;23.70;47.30
47825;DHT22;33589;48.242;14.676;2023-12-20T07:27:00;23.70;47.30
47825;DHT22;33589;48.242;14.676;2023-12-20T07:29:26;23.80;47.30
47825;DHT22;33589;48.242;14.676;2023-12-20T07:31:55;23.80;47.20
47825;DHT22;33589;48.242;14.676;2023-12-20T07:34:21;23.80;47.20
47825;DHT22;33589;48.242;14.676;2023-12-20T07:36:46;23.80;47.20
47825;DHT22;33589;48.242;14.676;2023-12-20T07:39:13;23.80;47.30
47825;DHT22;33589;48.242;14.676;2023-12-20T07:41:39;23.80;47.20
47825;DHT22;33589;48.242;14.676;2023-12-20T07:44:06;23.80;47.20
47825;DHT22;33589;48.242;14.676;2023-12-20T07:46:32;23.90;47.20
47825;DHT22;33589;48.242;14.676;2023-12-20T07:48:58;23.80;46.20
47825;DHT22;33589;48.242;14.676;2023-12-20T07:51:23;23.70;46.70
47825;DHT22;33589;48.242;14.676;2023-12-20T07:53:49;23.70;47.00
47825;DHT22;33589;48.242;14.676;2023-12-20T07:56:19;23.70;46.90
47825;DHT22;33589;48.242;14.676;2023-12-20T07:58:45;23.80;46.70
47825;DHT22;33589;48.242;14.676;2023-12-20T08:01:11;23.80;46.70
47825;DHT22;33589;48.242;14.676;2023-12-20T08:03:38;23.80;46.80
47825;DHT22;33589;48.242;14.676;2023-12-20T08:06:04;23.90;46.90
47825;DHT22;33589;48.242;14.676;2023-12-20T08:08:30;23.90;46.80
47825;DHT22;33589;48.242;14.676;2023-12-20T08:10:55;23.90;46.80
47825;DHT22;33589;48.242;14.676;2023-12-20T08:13:24;24.00;46.80
47825;DHT22;33589;48.242;14.676;2023-12-20T08:15:52;24.00;46.70
47825;DHT22;33589;48.242;14.676;2023-12-20T08:18:18;24.10;46.80
47825;DHT22;33589;48.242;14.676;2023-12-20T08:20:44;24.10;46.60
47825;DHT22;33589;48.242;14.676;2023-12-20T08:23:10;24.10;46.50
47825;DHT22;33589;48.242;14.676;2023-12-20T08:25:36;24.10;46.50
47825;DHT22;33589;48.242;14.676;2023-12-20T08:28:02;24.20;46.60
47825;DHT22;33589;48.242;14.676;2023-12-20T08:30:28;24.20;47.20
47825;DHT22;33589;48.242;14.676;2023-12-20T08:32:55;24.20;46.60
47825;DHT22;33589;48.242;14.676;2023-12-20T08:35:21;24.30;46.70
47825;DHT22;33589;48.242;14.676;2023-12-20T08:37:46;24.20;46.70
47825;DHT22;33589;48.242;14.676;2023-12-20T08:40:12;24.30;46.80
47825;DHT22;33589;48.242;14.676;2023-12-20T08:42:38;24.30;46.80
47825;DHT22;33589;48.242;14.676;2023-12-20T08:45:04;24.30;46.90
47825;DHT22;33589;48.242;14.676;2023-12-20T08:47:30;24.20;46.90
47825;DHT22;33589;48.242;14.676;2023-12-20T08:49:55;24.20;46.90
47825;DHT22;33589;48.242;14.676;2023-12-20T08:52:26;24.20;47.00
47825;DHT22;33589;48.242;14.676;2023-12-20T08:54:53;24.10;47.00
47825;DHT22;33589;48.242;14.676;2023-12-20T08:57:22;24.10;47.20
47825;DHT22;33589;48.242;14.676;2023-12-20T08:59:51;24.10;47.20
47825;DHT22;33589;48.242;14.676;2023-12-20T09:02:17;24.10;47.20
47825;DHT22;33589;48.242;14.676;2023-12-20T09:04:43;24.10;47.30
47825;DHT22;33589;48.242;14.676;2023-12-20T09:07:24;24.10;47.30
47825;DHT22;33589;48.242;14.676;2023-12-20T09:09:51;24.10;47.30
47825;DHT22;33589;48.242;14.676;2023-12-20T09:12:20;24.10;47.30
47825;DHT22;33589;48.242;14.676;2023-12-20T09:14:47;24.10;47.20
47825;DHT22;33589;48.242;14.676;2023-12-20T09:17:14;24.10;47.30
47825;DHT22;33589;48.242;14.676;2023-12-20T09:19:40;24.00;47.30
47825;DHT22;33589;48.242;14.676;2023-12-20T09:22:06;24.00;47.40
47825;DHT22;33589;48.242;14.676;2023-12-20T09:24:32;24.10;47.40
47825;DHT22;33589;48.242;14.676;2023-12-20T09:26:57;24.10;47.30
47825;DHT22;33589;48.242;14.676;2023-12-20T09:29:23;24.10;47.20
47825;DHT22;33589;48.242;14.676;2023-12-20T09:31:50;24.10;47.30
47825;DHT22;33589;48.242;14.676;2023-12-20T09:34:16;24.10;46.30
47825;DHT22;33589;48.242;14.676;2023-12-20T09:36:42;23.60;44.50
47825;DHT22;33589;48.242;14.676;2023-12-20T09:39:20;22.80;44.80
47825;DHT22;33589;48.242;14.676;2023-12-20T09:42:11;22.20;47.40
47825;DHT22;33589;48.242;14.676;2023-12-20T09:44:35;22.10;48.20
47825;DHT22;33589;48.242;14.676;2023-12-20T09:47:05;22.20;48.40
47825;DHT22;33589;48.242;14.676;2023-12-20T09:49:32;22.50;49.10
47825;DHT22;33589;48.242;14.676;2023-12-20T09:52:00;22.60;48.30
47825;DHT22;33589;48.242;14.676;2023-12-20T09:54:27;22.80;48.10
47825;DHT22;33589;48.242;14.676;2023-12-20T09:56:54;23.00;47.90
47825;DHT22;33589;48.242;14.676;2023-12-20T09:59:19;23.10;47.80
47825;DHT22;33589;48.242;14.676;2023-12-20T10:01:45;23.20;47.70
47825;DHT22;33589;48.242;14.676;2023-12-20T10:04:13;23.40;47.70
47825;DHT22;33589;48.242;14.676;2023-12-20T10:06:42;23.50;47.40
47825;DHT22;33589;48.242;14.676;2023-12-20T10:09:09;23.60;47.30
47825;DHT22;33589;48.242;14.676;2023-12-20T10:11:36;23.70;47.20
47825;DHT22;33589;48.242;14.676;2023-12-20T10:14:10;23.70;47.10
47825;DHT22;33589;48.242;14.676;2023-12-20T10:16:36;23.90;47.20
47825;DHT22;33589;48.242;14.676;2023-12-20T10:19:02;23.90;47.00
47825;DHT22;33589;48.242;14.676;2023-12-20T10:21:28;24.00;46.90
47825;DHT22;33589;48.242;14.676;2023-12-20T10:23:54;24.10;47.00
47825;DHT22;33589;48.242;14.676;2023-12-20T10:28:50;24.00;47.00
47825;DHT22;33589;48.242;14.676;2023-12-20T10:31:30;23.90;47.00
47825;DHT22;33589;48.242;14.676;2023-12-20T10:34:00;23.90;47.20
47825;DHT22;33589;48.242;14.676;2023-12-20T10:36:28;23.80;47.30
47825;DHT22;33589;48.242;14.676;2023-12-20T10:38:55;23.80;47.40
47825;DHT22;33589;48.242;14.676;2023-12-20T10:41:29;23.80;47.50
47825;DHT22;33589;48.242;14.676;2023-12-20T10:43:58;23.80;47.50
47825;DHT22;33589;48.242;14.676;2023-12-20T10:46:24;23.80;47.60
47825;DHT22;33589;48.242;14.676;2023-12-20T10:48:53;23.80;47.60
47825;DHT22;33589;48.242;14.676;2023-12-20T10:51:20;23.80;47.60
47825;DHT22;33589;48.242;14.676;2023-12-20T10:53:47;23.80;47.70
47825;DHT22;33589;48.242;14.676;2023-12-20T10:56:17;23.80;47.70
47825;DHT22;33589;48.242;14.676;2023-12-20T10:58:43;23.80;47.80
47825;DHT22;33589;48.242;14.676;2023-12-20T11:01:13;23.80;47.80
47825;DHT22;33589;48.242;14.676;2023-12-20T11:03:52;23.80;47.90
47825;DHT22;33589;48.242;14.676;2023-12-20T11:06:49;23.80;48.00
47825;DHT22;33589;48.242;14.676;2023-12-20T11:09:26;23.90;48.40
47825;DHT22;33589;48.242;14.676;2023-12-20T11:12:15;23.90;48.10
47825;DHT22;33589;48.242;14.676;2023-12-20T11:14:51;23.90;47.50
47825;DHT22;33589;48.242;14.676;2023-12-20T11:17:17;23.90;48.30
47825;DHT22;33589;48.242;14.676;2023-12-20T11:22:21;24.10;49.80
47825;DHT22;33589;48.242;14.676;2023-12-20T11:24:47;24.10;50.00
47825;DHT22;33589;48.242;14.676;2023-12-20T11:27:14;24.10;50.10
47825;DHT22;33589;48.242;14.676;2023-12-20T11:29:40;24.20;50.20
47825;DHT22;33589;48.242;14.676;2023-12-20T11:37:37;24.30;50.90
47825;DHT22;33589;48.242;14.676;2023-12-20T11:40:06;24.30;50.40
47825;DHT22;33589;48.242;14.676;2023-12-20T11:42:33;24.30;50.10
47825;DHT22;33589;48.242;14.676;2023-12-20T11:45:03;24.30;50.40
47825;DHT22;33589;48.242;14.676;2023-12-20T11:47:30;24.30;50.20
47825;DHT22;33589;48.242;14.676;2023-12-20T11:49:57;24.30;50.10
47825;DHT22;33589;48.242;14.676;2023-12-20T11:52:22;24.30;49.90
47825;DHT22;33589;48.242;14.676;2023-12-20T11:54:48;24.30;50.00
47825;DHT22;33589;48.242;14.676;2023-12-20T11:57:14;24.30;50.10
47825;DHT22;33589;48.242;14.676;2023-12-20T11:59:40;24.30;50.00
47825;DHT22;33589;48.242;14.676;2023-12-20T12:02:05;24.40;50.10
47825;DHT22;33589;48.242;14.676;2023-12-20T12:04:31;24.40;49.90
47825;DHT22;33589;48.242;14.676;2023-12-20T12:06:57;24.50;50.10
47825;DHT22;33589;48.242;14.676;2023-12-20T12:09:23;24.40;50.00
47825;DHT22;33589;48.242;14.676;2023-12-20T12:11:49;24.40;50.10
47825;DHT22;33589;48.242;14.676;2023-12-20T12:14:15;24.40;50.10
47825;DHT22;33589;48.242;14.676;2023-12-20T12:16:42;24.40;50.20
47825;DHT22;33589;48.242;14.676;2023-12-20T12:19:20;24.30;51.10
47825;DHT22;33589;48.242;14.676;2023-12-20T12:21:46;24.30;51.60
47825;DHT22;33589;48.242;14.676;2023-12-20T12:24:12;24.20;52.20
47825;DHT22;33589;48.242;14.676;2023-12-20T12:26:38;24.20;51.90
47825;DHT22;33589;48.242;14.676;2023-12-20T12:29:07;24.20;52.70
47825;DHT22;33589;48.242;14.676;2023-12-20T12:31:33;24.30;53.10
47825;DHT22;33589;48.242;14.676;2023-12-20T12:33:58;24.30;53.00
47825;DHT22;33589;48.242;14.676;2023-12-20T12:36:24;24.40;53.10
47825;DHT22;33589;48.242;14.676;2023-12-20T12:38:50;24.40;52.90
47825;DHT22;33589;48.242;14.676;2023-12-20T12:41:16;24.40;52.90
47825;DHT22;33589;48.242;14.676;2023-12-20T12:43:42;24.40;53.00
47825;DHT22;33589;48.242;14.676;2023-12-20T12:46:07;24.50;53.20
47825;DHT22;33589;48.242;14.676;2023-12-20T12:48:33;24.40;52.90
47825;DHT22;33589;48.242;14.676;2023-12-20T12:50:59;24.40;52.60
47825;DHT22;33589;48.242;14.676;2023-12-20T12:53:26;24.50;53.00
47825;DHT22;33589;48.242;14.676;2023-12-20T12:55:53;24.40;52.90
47825;DHT22;33589;48.242;14.676;2023-12-20T12:58:20;24.40;52.80
47825;DHT22;33589;48.242;14.676;2023-12-20T13:00:45;24.40;52.70
47825;DHT22;33589;48.242;14.676;2023-12-20T13:03:11;24.30;52.50
47825;DHT22;33589;48.242;14.676;2023-12-20T13:05:37;24.30;52.70
47825;DHT22;33589;48.242;14.676;2023-12-20T13:08:03;24.30;53.30
47825;DHT22;33589;48.242;14.676;2023-12-20T13:10:29;24.40;52.70
47825;DHT22;33589;48.242;14.676;2023-12-20T13:12:55;24.40;52.80
47825;DHT22;33589;48.242;14.676;2023-12-20T13:15:21;24.50;52.80
47825;DHT22;33589;48.242;14.676;2023-12-20T13:17:46;24.50;52.60
47825;DHT22;33589;48.242;14.676;2023-12-20T13:20:12;24.40;52.50
47825;DHT22;33589;48.242;14.676;2023-12-20T13:22:38;24.40;52.50
47825;DHT22;33589;48.242;14.676;2023-12-20T13:25:04;24.40;52.40
47825;DHT22;33589;48.242;14.676;2023-12-20T13:27:30;24.30;52.50
47825;DHT22;33589;48.242;14.676;2023-12-20T13:29:56;24.40;52.50
47825;DHT22;33589;48.242;14.676;2023-12-20T13:32:22;24.30;52.30
47825;DHT22;33589;48.242;14.676;2023-12-20T13:34:47;24.40;52.30
47825;DHT22;33589;48.242;14.676;2023-12-20T13:37:13;24.40;52.30
47825;DHT22;33589;48.242;14.676;2023-12-20T13:39:40;24.40;52.20
47825;DHT22;33589;48.242;14.676;2023-12-20T13:42:06;24.40;52.30
47825;DHT22;33589;48.242;14.676;2023-12-20T13:44:32;24.30;52.30
47825;DHT22;33589;48.242;14.676;2023-12-20T13:46:58;24.30;52.20
47825;DHT22;33589;48.242;14.676;2023-12-20T13:49:23;24.30;52.20
47825;DHT22;33589;48.242;14.676;2023-12-20T13:51:51;24.30;52.20
47825;DHT22;33589;48.242;14.676;2023-12-20T13:54:16;24.30;52.00
47825;DHT22;33589;48.242;14.676;2023-12-20T13:56:46;24.30;52.20
47825;DHT22;33589;48.242;14.676;2023-12-20T13:59:11;24.30;52.00
47825;DHT22;33589;48.242;14.676;2023-12-20T14:01:38;24.30;52.10
47825;DHT22;33589;48.242;14.676;2023-12-20T14:04:04;24.30;51.90
47825;DHT22;33589;48.242;14.676;2023-12-20T14:06:29;24.40;51.70
47825;DHT22;33589;48.242;14.676;2023-12-20T14:08:55;24.40;51.60
47825;DHT22;33589;48.242;14.676;2023-12-20T14:11:21;24.40;51.50
47825;DHT22;33589;48.242;14.676;2023-12-20T14:13:47;24.40;52.10
47825;DHT22;33589;48.242;14.676;2023-12-20T14:16:12;24.40;51.90
47825;DHT22;33589;48.242;14.676;2023-12-20T14:18:38;24.40;51.90
47825;DHT22;33589;48.242;14.676;2023-12-20T14:21:05;24.40;51.90
47825;DHT22;33589;48.242;14.676;2023-12-20T14:23:32;24.40;51.70
47825;DHT22;33589;48.242;14.676;2023-12-20T14:25:59;24.40;51.70
47825;DHT22;33589;48.242;14.676;2023-12-20T14:28:25;24.40;51.70
47825;DHT22;33589;48.242;14.676;2023-12-20T14:30:51;24.50;51.90
47825;DHT22;33589;48.242;14.676;2023-12-20T14:33:17;24.50;51.80
47825;DHT22;33589;48.242;14.676;2023-12-20T14:35:45;24.50;51.80
47825;DHT22;33589;48.242;14.676;2023-12-20T14:38:11;24.50;51.90
47825;DHT22;33589;48.242;14.676;2023-12-20T14:40:38;24.50;51.80
47825;DHT22;33589;48.242;14.676;2023-12-20T14:43:04;24.50;51.80
47825;DHT22;33589;48.242;14.676;2023-12-20T14:45:30;24.50;51.70
47825;DHT22;33589;48.242;14.676;2023-12-20T14:47:55;24.40;51.70
47825;DHT22;33589;48.242;14.676;2023-12-20T14:50:21;24.50;52.10
47825;DHT22;33589;48.242;14.676;2023-12-20T14:52:47;24.50;52.00
47825;DHT22;33589;48.242;14.676;2023-12-20T14:55:13;24.40;51.70
47825;DHT22;33589;48.242;14.676;2023-12-20T14:57:39;24.50;51.70
47825;DHT22;33589;48.242;14.676;2023-12-20T15:00:05;24.40;51.50
47825;DHT22;33589;48.242;14.676;2023-12-20T15:02:31;24.50;51.40
47825;DHT22;33589;48.242;14.676;2023-12-20T15:04:57;24.50;51.30
47825;DHT22;33589;48.242;14.676;2023-12-20T15:07:23;24.50;51.40
47825;DHT22;33589;48.242;14.676;2023-12-20T15:09:48;24.50;51.30
47825;DHT22;33589;48.242;14.676;2023-12-20T15:12:14;24.50;51.20
47825;DHT22;33589;48.242;14.676;2023-12-20T15:14:40;24.50;51.10
47825;DHT22;33589;48.242;14.676;2023-12-20T15:17:06;24.50;51.00
47825;DHT22;33589;48.242;14.676;2023-12-20T15:19:32;24.60;51.00
47825;DHT22;33589;48.242;14.676;2023-12-20T15:21:58;24.60;50.90